KBWG/BWG METAR and TAF weather

Enter ICAO airport designator
Station Type Date Time Source
KBWG METAR 2019/05/25 14:53 UTC NOAA

KBWG 251453Z AUTO 22008KT 10SM CLR 30/18 A3013 RMK AO2 SLP195 T03000183 50002


Station Type Date Time Source
KBWG Decoded METAR 2019/05/25 14:53 UTC NOAA

BOWLING GREEN-WARREN CO RGNL, KY, United States (KBWG) 36-58N 086-25W 161M
May 25, 2019 - 10:53 AM EDT / 2019.05.25 1453 UTC
Wind: from the SW (220 degrees) at 9 MPH (8 KT):0
Visibility: 10 mile(s):0
Sky conditions: clear
Temperature: 86.0 F (30.0 C)
Dew Point: 64.9 F (18.3 C)
Relative Humidity: 49%
Pressure (altimeter): 30.13 in. Hg (1020 hPa)
Pressure tendency: 0.01 inches (0.2 hPa) higher than three hours ago
ob: KBWG 251453Z AUTO 22008KT 10SM CLR 30/18 A3013 RMK AO2 SLP195 T03000183 50002
cycle: 15

Station Type Date Time Source
KBWG TAF 2019/05/25 12:22 UTC NOAA

TAF KBWG 251120Z 2512/2612 21005KT P6SM SKC
FM251500 24012G18KT P6SM SCT050 BKN250
FM260000 VRB03KT P6SM SCT250

Example: see airport list